sensor_id;sensor_type;location;lat;lon;timestamp;pressure;altitude;pressure_sealevel;temperature;humidity
75594;BME280;64176;49.156;7.810;2023-04-25T00:01:46;98617.94;;;7.27;92.77
75594;BME280;64176;49.156;7.810;2023-04-25T00:04:33;98603.34;;;7.26;91.94
75594;BME280;64176;49.156;7.810;2023-04-25T00:07:17;98619.56;;;7.16;92.56
75594;BME280;64176;49.156;7.810;2023-04-25T00:10:01;98605.88;;;7.21;92.56
75594;BME280;64176;49.156;7.810;2023-04-25T00:12:48;98604.16;;;7.22;92.20
75594;BME280;64176;49.156;7.810;2023-04-25T00:15:32;98597.22;;;7.12;93.16
75594;BME280;64176;49.156;7.810;2023-04-25T00:18:16;98604.22;;;7.31;92.61
75594;BME280;64176;49.156;7.810;2023-04-25T00:21:02;98596.53;;;7.32;92.48
75594;BME280;64176;49.156;7.810;2023-04-25T00:23:50;98604.16;;;7.20;91.73
75594;BME280;64176;49.156;7.810;2023-04-25T00:26:35;98601.50;;;7.07;93.02
75594;BME280;64176;49.156;7.810;2023-04-25T00:29:19;98600.69;;;7.14;93.34
75594;BME280;64176;49.156;7.810;2023-04-25T00:32:07;98598.13;;;7.14;93.80
75594;BME280;64176;49.156;7.810;2023-04-25T00:34:51;98602.38;;;7.12;93.35
75594;BME280;64176;49.156;7.810;2023-04-25T00:37:35;98592.91;;;7.05;92.98
75594;BME280;64176;49.156;7.810;2023-04-25T00:40:22;98598.09;;;7.12;93.46
75594;BME280;64176;49.156;7.810;2023-04-25T00:43:09;98593.00;;;7.17;93.18
75594;BME280;64176;49.156;7.810;2023-04-25T00:45:55;98584.38;;;7.12;93.32
75594;BME280;64176;49.156;7.810;2023-04-25T00:48:42;98584.34;;;7.06;93.46
75594;BME280;64176;49.156;7.810;2023-04-25T00:51:28;98577.50;;;7.05;93.86
75594;BME280;64176;49.156;7.810;2023-04-25T00:54:14;98579.06;;;6.89;93.98
75594;BME280;64176;49.156;7.810;2023-04-25T00:56:58;98579.03;;;6.84;94.33
75594;BME280;64176;49.156;7.810;2023-04-25T00:59:45;98580.72;;;6.87;94.16
75594;BME280;64176;49.156;7.810;2023-04-25T01:02:33;98584.09;;;6.80;94.44
75594;BME280;64176;49.156;7.810;2023-04-25T01:05:17;98592.84;;;6.99;93.95
75594;BME280;64176;49.156;7.810;2023-04-25T01:08:03;98587.75;;;7.05;93.55
75594;BME280;64176;49.156;7.810;2023-04-25T01:10:49;98592.03;;;7.04;93.38
75594;BME280;64176;49.156;7.810;2023-04-25T01:13:34;98597.97;;;6.99;93.35
75594;BME280;64176;49.156;7.810;2023-04-25T01:16:21;98587.69;;;6.97;93.51
75594;BME280;64176;49.156;7.810;2023-04-25T01:19:09;98589.44;;;7.03;92.65
75594;BME280;64176;49.156;7.810;2023-04-25T01:21:57;98592.06;;;7.10;92.68
75594;BME280;64176;49.156;7.810;2023-04-25T01:24:41;98595.50;;;7.09;91.65
75594;BME280;64176;49.156;7.810;2023-04-25T01:27:25;98587.81;;;7.12;91.45
75594;BME280;64176;49.156;7.810;2023-04-25T01:30:11;98585.97;;;6.98;92.70
75594;BME280;64176;49.156;7.810;2023-04-25T01:32:56;98585.22;;;7.06;92.37
75594;BME280;64176;49.156;7.810;2023-04-25T01:35:41;98580.09;;;7.11;91.96
75594;BME280;64176;49.156;7.810;2023-04-25T01:38:25;98572.38;;;7.06;91.93
75594;BME280;64176;49.156;7.810;2023-04-25T01:41:10;98587.66;;;6.92;93.02
75594;BME280;64176;49.156;7.810;2023-04-25T01:43:54;98591.19;;;7.04;93.36
75594;BME280;64176;49.156;7.810;2023-04-25T01:46:39;98588.53;;;6.94;93.25
75594;BME280;64176;49.156;7.810;2023-04-25T01:49:23;98579.91;;;6.88;94.04
75594;BME280;64176;49.156;7.810;2023-04-25T01:52:08;98553.22;;;6.72;93.44
75594;BME280;64176;49.156;7.810;2023-04-25T01:54:53;98581.56;;;6.83;93.62
75594;BME280;64176;49.156;7.810;2023-04-25T01:57:43;98572.88;;;6.69;94.05
75594;BME280;64176;49.156;7.810;2023-04-25T02:00:28;98571.13;;;6.66;94.41
75594;BME280;64176;49.156;7.810;2023-04-25T02:03:12;98580.50;;;6.61;94.21
75594;BME280;64176;49.156;7.810;2023-04-25T02:05:59;98567.56;;;6.52;94.86
75594;BME280;64176;49.156;7.810;2023-04-25T02:08:44;98586.56;;;6.68;94.33
75594;BME280;64176;49.156;7.810;2023-04-25T02:11:30;98585.63;;;6.60;94.21
75594;BME280;64176;49.156;7.810;2023-04-25T02:14:42;98579.56;;;6.51;94.96
75594;BME280;64176;49.156;7.810;2023-04-25T02:17:34;98579.78;;;6.73;93.77
75594;BME280;64176;49.156;7.810;2023-04-25T02:20:20;98572.94;;;6.76;93.69
75594;BME280;64176;49.156;7.810;2023-04-25T02:23:05;98571.19;;;6.71;93.96
75594;BME280;64176;49.156;7.810;2023-04-25T02:25:49;98575.38;;;6.64;94.26
75594;BME280;64176;49.156;7.810;2023-04-25T02:28:33;98571.19;;;6.72;94.25
75594;BME280;64176;49.156;7.810;2023-04-25T02:31:22;98543.63;;;6.51;94.69
75594;BME280;64176;49.156;7.810;2023-04-25T02:34:08;98571.19;;;6.71;94.25
75594;BME280;64176;49.156;7.810;2023-04-25T02:36:54;98564.06;;;6.45;94.60
75594;BME280;64176;49.156;7.810;2023-04-25T02:39:41;98562.41;;;6.52;94.69
75594;BME280;64176;49.156;7.810;2023-04-25T02:42:28;98562.22;;;6.32;95.59
75594;BME280;64176;49.156;7.810;2023-04-25T02:45:15;98555.56;;;6.52;94.92
75594;BME280;64176;49.156;7.810;2023-04-25T02:47:59;98548.59;;;6.36;94.95
75594;BME280;64176;49.156;7.810;2023-04-25T02:50:43;98554.72;;;6.49;95.20
75594;BME280;64176;49.156;7.810;2023-04-25T02:53:27;98555.50;;;6.43;95.08
75594;BME280;64176;49.156;7.810;2023-04-25T02:56:11;98549.47;;;6.38;95.18
75594;BME280;64176;49.156;7.810;2023-04-25T02:58:55;98564.19;;;6.56;94.55
75594;BME280;64176;49.156;7.810;2023-04-25T03:01:39;98550.34;;;6.40;94.66
75594;BME280;64176;49.156;7.810;2023-04-25T03:04:23;98562.38;;;6.46;94.29
75594;BME280;64176;49.156;7.810;2023-04-25T03:07:08;98561.41;;;6.36;94.98
75594;BME280;64176;49.156;7.810;2023-04-25T03:09:55;98564.56;;;6.12;95.21
75594;BME280;64176;49.156;7.810;2023-04-25T03:12:40;98560.47;;;6.28;95.44
75594;BME280;64176;49.156;7.810;2023-04-25T03:15:25;98559.72;;;6.38;94.72
75594;BME280;64176;49.156;7.810;2023-04-25T03:18:10;98566.41;;;6.24;94.91
75594;BME280;64176;49.156;7.810;2023-04-25T03:21:00;98561.34;;;6.32;94.95
75594;BME280;64176;49.156;7.810;2023-04-25T03:23:44;98568.09;;;6.22;94.24
75594;BME280;64176;49.156;7.810;2023-04-25T03:26:28;98557.06;;;6.29;94.55
75594;BME280;64176;49.156;7.810;2023-04-25T03:29:13;98553.59;;;6.26;94.54
75594;BME280;64176;49.156;7.810;2023-04-25T03:31:59;98552.41;;;5.99;95.51
75594;BME280;64176;49.156;7.810;2023-04-25T03:34:43;98557.63;;;6.04;95.64
75594;BME280;64176;49.156;7.810;2023-04-25T03:37:27;98561.22;;;6.18;95.04
75594;BME280;64176;49.156;7.810;2023-04-25T03:40:13;98560.41;;;6.24;95.01
75594;BME280;64176;49.156;7.810;2023-04-25T03:43:18;98546.75;;;6.25;94.84
75594;BME280;64176;49.156;7.810;2023-04-25T03:46:08;98555.34;;;6.31;93.93
75594;BME280;64176;49.156;7.810;2023-04-25T03:48:53;98558.53;;;6.09;94.62
75594;BME280;64176;49.156;7.810;2023-04-25T03:51:41;98546.47;;;6.02;94.73
75594;BME280;64176;49.156;7.810;2023-04-25T03:54:25;98551.56;;;5.99;95.01
75594;BME280;64176;49.156;7.810;2023-04-25T03:57:24;98551.53;;;5.94;94.67
75594;BME280;64176;49.156;7.810;2023-04-25T04:00:12;98556.88;;;6.12;94.65
75594;BME280;64176;49.156;7.810;2023-04-25T04:02:59;98549.97;;;6.08;94.60
75594;BME280;64176;49.156;7.810;2023-04-25T04:05:44;98557.69;;;6.11;94.69
75594;BME280;64176;49.156;7.810;2023-04-25T04:08:29;98545.88;;;6.24;94.61
75594;BME280;64176;49.156;7.810;2023-04-25T04:11:13;98556.97;;;6.21;93.81
75594;BME280;64176;49.156;7.810;2023-04-25T04:13:57;98546.78;;;6.31;93.95
75594;BME280;64176;49.156;7.810;2023-04-25T04:16:42;98542.38;;;6.16;94.45
75594;BME280;64176;49.156;7.810;2023-04-25T04:19:27;98550.69;;;5.98;94.68
75594;BME280;64176;49.156;7.810;2023-04-25T04:22:28;98549.94;;;6.04;94.81
75594;BME280;64176;49.156;7.810;2023-04-25T04:25:15;98547.38;;;6.05;94.45
75594;BME280;64176;49.156;7.810;2023-04-25T04:28:38;98556.72;;;6.02;94.78
75594;BME280;64176;49.156;7.810;2023-04-25T04:31:42;98545.78;;;6.15;94.69
75594;BME280;64176;49.156;7.810;2023-04-25T04:34:29;98545.84;;;6.21;94.27
75594;BME280;64176;49.156;7.810;2023-04-25T04:37:15;98544.97;;;6.17;95.10
75594;BME280;64176;49.156;7.810;2023-04-25T04:40:00;98546.69;;;6.21;94.52
75594;BME280;64176;49.156;7.810;2023-04-25T04:42:58;98556.84;;;6.11;94.76
75594;BME280;64176;49.156;7.810;2023-04-25T04:46:03;98549.09;;;6.06;95.35
75594;BME280;64176;49.156;7.810;2023-04-25T04:49:13;98562.84;;;6.13;94.88
75594;BME280;64176;49.156;7.810;2023-04-25T04:52:17;98570.56;;;6.14;95.52
75594;BME280;64176;49.156;7.810;2023-04-25T04:55:21;98571.44;;;6.15;95.33
75594;BME280;64176;49.156;7.810;2023-04-25T04:58:34;98558.53;;;6.07;94.95
75594;BME280;64176;49.156;7.810;2023-04-25T05:01:30;98551.81;;;6.18;95.21
75594;BME280;64176;49.156;7.810;2023-04-25T05:04:36;98561.97;;;6.11;94.77
75594;BME280;64176;49.156;7.810;2023-04-25T05:07:42;98570.63;;;6.20;95.67
75594;BME280;64176;49.156;7.810;2023-04-25T05:10:39;98573.44;;;6.39;94.72
75594;BME280;64176;49.156;7.810;2023-04-25T05:13:42;98579.19;;;6.21;95.41
75594;BME280;64176;49.156;7.810;2023-04-25T05:16:44;98580.16;;;6.31;95.17
75594;BME280;64176;49.156;7.810;2023-04-25T05:19:40;98585.28;;;6.31;94.94
75594;BME280;64176;49.156;7.810;2023-04-25T05:22:41;98584.59;;;6.44;94.27
75594;BME280;64176;49.156;7.810;2023-04-25T05:25:46;98586.22;;;6.36;94.72
75594;BME280;64176;49.156;7.810;2023-04-25T05:28:40;98579.16;;;6.19;94.96
75594;BME280;64176;49.156;7.810;2023-04-25T05:31:51;98587.84;;;6.31;95.31
75594;BME280;64176;49.156;7.810;2023-04-25T05:34:36;98593.09;;;6.38;94.50
75594;BME280;64176;49.156;7.810;2023-04-25T05:37:23;98590.59;;;6.46;94.57
75594;BME280;64176;49.156;7.810;2023-04-25T05:40:14;98581.13;;;6.39;93.89
75594;BME280;64176;49.156;7.810;2023-04-25T05:43:22;98584.66;;;6.48;93.45
75594;BME280;64176;49.156;7.810;2023-04-25T05:46:19;98591.53;;;6.54;93.89
75594;BME280;64176;49.156;7.810;2023-04-25T05:49:27;98591.72;;;6.69;93.02
75594;BME280;64176;49.156;7.810;2023-04-25T05:52:14;98590.09;;;6.79;93.50
75594;BME280;64176;49.156;7.810;2023-04-25T05:55:05;98587.47;;;6.76;92.89
75594;BME280;64176;49.156;7.810;2023-04-25T05:57:50;98594.41;;;6.86;92.94
75594;BME280;64176;49.156;7.810;2023-04-25T06:00:34;98594.44;;;6.87;93.25
75594;BME280;64176;49.156;7.810;2023-04-25T06:03:20;98591.84;;;6.83;92.85
75594;BME280;64176;49.156;7.810;2023-04-25T06:06:04;98604.47;;;6.62;93.47
75594;BME280;64176;49.156;7.810;2023-04-25T06:08:48;98608.88;;;6.76;93.00
75594;BME280;64176;49.156;7.810;2023-04-25T06:11:32;98606.34;;;6.79;92.97
75594;BME280;64176;49.156;7.810;2023-04-25T06:14:19;98609.03;;;6.90;92.56
75594;BME280;64176;49.156;7.810;2023-04-25T06:17:06;98608.00;;;6.74;92.60
75594;BME280;64176;49.156;7.810;2023-04-25T06:19:53;98608.09;;;6.85;92.61
75594;BME280;64176;49.156;7.810;2023-04-25T06:22:39;98613.22;;;6.80;92.79
75594;BME280;64176;49.156;7.810;2023-04-25T06:25:23;98600.25;;;6.68;93.67
75594;BME280;64176;49.156;7.810;2023-04-25T06:28:08;98608.19;;;6.91;92.89
75594;BME280;64176;49.156;7.810;2023-04-25T06:30:53;98616.00;;;7.02;92.11
75594;BME280;64176;49.156;7.810;2023-04-25T06:33:40;98614.94;;;6.81;92.70
75594;BME280;64176;49.156;7.810;2023-04-25T06:36:24;98620.88;;;6.76;92.91
75594;BME280;64176;49.156;7.810;2023-04-25T06:39:15;98618.13;;;6.59;93.49
75594;BME280;64176;49.156;7.810;2023-04-25T06:42:02;98615.63;;;6.67;93.79
75594;BME280;64176;49.156;7.810;2023-04-25T06:45:03;98620.97;;;6.83;94.39
75594;BME280;64176;49.156;7.810;2023-04-25T06:47:48;98618.50;;;6.96;93.67
75594;BME280;64176;49.156;7.810;2023-04-25T06:50:33;98622.00;;;7.02;93.60
75594;BME280;64176;49.156;7.810;2023-04-25T06:53:17;98629.56;;;6.88;93.07
75594;BME280;64176;49.156;7.810;2023-04-25T06:56:07;98629.59;;;6.91;93.74
75594;BME280;64176;49.156;7.810;2023-04-25T06:59:14;98633.16;;;7.04;93.13
75594;BME280;64176;49.156;7.810;2023-04-25T07:01:59;98628.00;;;7.07;92.73
75594;BME280;64176;49.156;7.810;2023-04-25T07:04:44;98645.13;;;7.04;93.50
75594;BME280;64176;49.156;7.810;2023-04-25T07:07:30;98644.28;;;7.08;93.60
75594;BME280;64176;49.156;7.810;2023-04-25T07:10:16;98646.00;;;7.06;92.55
75594;BME280;64176;49.156;7.810;2023-04-25T07:13:02;98644.25;;;7.02;92.58
75594;BME280;64176;49.156;7.810;2023-04-25T07:15:49;98651.22;;;7.15;92.85
75594;BME280;64176;49.156;7.810;2023-04-25T07:18:35;98653.84;;;7.22;92.23
75594;BME280;64176;49.156;7.810;2023-04-25T07:21:22;98649.50;;;7.14;92.25
75594;BME280;64176;49.156;7.810;2023-04-25T07:24:08;98659.06;;;7.31;91.44
75594;BME280;64176;49.156;7.810;2023-04-25T07:26:57;98659.00;;;7.22;91.81
75594;BME280;64176;49.156;7.810;2023-04-25T07:29:41;98657.28;;;7.21;92.39
75594;BME280;64176;49.156;7.810;2023-04-25T07:32:26;98657.31;;;7.26;91.44
75594;BME280;64176;49.156;7.810;2023-04-25T07:35:11;98659.84;;;7.21;91.62
75594;BME280;64176;49.156;7.810;2023-04-25T07:37:58;98642.53;;;7.02;91.88
75594;BME280;64176;49.156;7.810;2023-04-25T07:40:42;98656.28;;;7.09;91.66
75594;BME280;64176;49.156;7.810;2023-04-25T07:43:29;98667.59;;;7.29;91.87
75594;BME280;64176;49.156;7.810;2023-04-25T07:46:16;98680.34;;;7.14;92.17
75594;BME280;64176;49.156;7.810;2023-04-25T07:49:00;98672.66;;;7.17;91.24
75594;BME280;64176;49.156;7.810;2023-04-25T07:51:45;98671.03;;;7.26;91.22
75594;BME280;64176;49.156;7.810;2023-04-25T07:54:32;98667.63;;;7.27;91.16
75594;BME280;64176;49.156;7.810;2023-04-25T07:57:22;98676.28;;;7.42;91.21
75594;BME280;64176;49.156;7.810;2023-04-25T08:00:09;98688.16;;;7.29;90.41
75594;BME280;64176;49.156;7.810;2023-04-25T08:02:57;98690.63;;;7.15;90.49
75594;BME280;64176;49.156;7.810;2023-04-25T08:05:42;98678.69;;;7.22;90.62
75594;BME280;64176;49.156;7.810;2023-04-25T08:08:26;98702.63;;;7.16;89.88
75594;BME280;64176;49.156;7.810;2023-04-25T08:11:11;98704.34;;;7.19;90.94
75594;BME280;64176;49.156;7.810;2023-04-25T08:13:55;98706.22;;;7.34;90.24
75594;BME280;64176;49.156;7.810;2023-04-25T08:16:40;98708.78;;;7.34;90.13
75594;BME280;64176;49.156;7.810;2023-04-25T08:19:24;98722.63;;;7.46;89.31
75594;BME280;64176;49.156;7.810;2023-04-25T08:22:09;98711.56;;;7.56;89.13
75594;BME280;64176;49.156;7.810;2023-04-25T08:25:04;98727.94;;;7.67;89.03
75594;BME280;64176;49.156;7.810;2023-04-25T08:27:52;98733.09;;;7.67;88.09
75594;BME280;64176;49.156;7.810;2023-04-25T08:30:39;98729.69;;;7.68;90.12
75594;BME280;64176;49.156;7.810;2023-04-25T08:33:26;98726.16;;;7.59;88.87
75594;BME280;64176;49.156;7.810;2023-04-25T08:36:18;98744.28;;;7.74;89.84
75594;BME280;64176;49.156;7.810;2023-04-25T08:39:02;98749.44;;;7.74;89.39
75594;BME280;64176;49.156;7.810;2023-04-25T08:41:47;98749.50;;;7.82;88.86
75594;BME280;64176;49.156;7.810;2023-04-25T08:44:33;98741.72;;;7.74;89.30
75594;BME280;64176;49.156;7.810;2023-04-25T08:47:20;98753.69;;;7.74;89.00
75594;BME280;64176;49.156;7.810;2023-04-25T08:50:09;98758.03;;;7.73;88.70
75594;BME280;64176;49.156;7.810;2023-04-25T08:52:57;98757.22;;;7.82;89.25
75594;BME280;64176;49.156;7.810;2023-04-25T08:55:46;98757.34;;;7.98;90.80
75594;BME280;64176;49.156;7.810;2023-04-25T08:58:31;98765.19;;;8.18;89.03
75594;BME280;64176;49.156;7.810;2023-04-25T09:01:18;98765.22;;;8.21;87.71
75594;BME280;64176;49.156;7.810;2023-04-25T09:04:08;98771.09;;;8.02;87.66
75594;BME280;64176;49.156;7.810;2023-04-25T09:06:52;98775.50;;;8.20;87.03
75594;BME280;64176;49.156;7.810;2023-04-25T09:09:36;98766.91;;;8.13;86.93
75594;BME280;64176;49.156;7.810;2023-04-25T09:12:23;98781.50;;;8.14;88.47
75594;BME280;64176;49.156;7.810;2023-04-25T09:15:10;98790.94;;;8.14;86.91
75594;BME280;64176;49.156;7.810;2023-04-25T09:18:30;98785.66;;;7.98;87.20
75594;BME280;64176;49.156;7.810;2023-04-25T09:21:16;98798.59;;;8.04;87.63
75594;BME280;64176;49.156;7.810;2023-04-25T09:24:03;98800.25;;;7.99;87.25
75594;BME280;64176;49.156;7.810;2023-04-25T09:26:49;98800.31;;;8.06;87.63
75594;BME280;64176;49.156;7.810;2023-04-25T09:29:38;98800.31;;;8.06;86.76
75594;BME280;64176;49.156;7.810;2023-04-25T09:32:24;98803.75;;;8.09;87.61
75594;BME280;64176;49.156;7.810;2023-04-25T09:35:24;98812.34;;;8.11;87.71
75594;BME280;64176;49.156;7.810;2023-04-25T09:38:12;98806.38;;;8.14;87.84
75594;BME280;64176;49.156;7.810;2023-04-25T09:41:22;98810.47;;;7.90;86.29
75594;BME280;64176;49.156;7.810;2023-04-25T09:44:07;98814.03;;;8.08;87.74
75594;BME280;64176;49.156;7.810;2023-04-25T09:46:55;98825.28;;;8.17;86.60
75594;BME280;64176;49.156;7.810;2023-04-25T09:49:42;98831.25;;;8.18;87.08
75594;BME280;64176;49.156;7.810;2023-04-25T09:52:29;98828.53;;;7.98;86.83
75594;BME280;64176;49.156;7.810;2023-04-25T09:55:25;98846.31;;;7.75;88.71
75594;BME280;64176;49.156;7.810;2023-04-25T09:58:10;98847.00;;;7.57;85.49
75594;BME280;64176;49.156;7.810;2023-04-25T10:01:02;98846.13;;;7.57;85.62
75594;BME280;64176;49.156;7.810;2023-04-25T10:03:56;98858.88;;;7.46;86.91
75594;BME280;64176;49.156;7.810;2023-04-25T10:07:20;98856.22;;;7.37;85.65
75594;BME280;64176;49.156;7.810;2023-04-25T10:10:12;98862.16;;;7.33;85.30
75594;BME280;64176;49.156;7.810;2023-04-25T10:12:56;98874.72;;;7.10;85.55
75594;BME280;64176;49.156;7.810;2023-04-25T10:15:43;98872.25;;;7.19;86.96
75594;BME280;64176;49.156;7.810;2023-04-25T10:18:28;98878.88;;;7.01;86.62
75594;BME280;64176;49.156;7.810;2023-04-25T10:21:14;98880.06;;;7.25;87.66
75594;BME280;64176;49.156;7.810;2023-04-25T10:24:02;98874.75;;;7.13;87.52
75594;BME280;64176;49.156;7.810;2023-04-25T10:26:48;98896.22;;;7.18;88.54
75594;BME280;64176;49.156;7.810;2023-04-25T10:29:33;98893.75;;;7.24;88.74
75594;BME280;64176;49.156;7.810;2023-04-25T10:32:17;98907.22;;;7.05;87.02
75594;BME280;64176;49.156;7.810;2023-04-25T10:35:16;98903.28;;;7.33;87.16
75594;BME280;64176;49.156;7.810;2023-04-25T10:41:11;98907.00;;;7.56;87.59
75594;BME280;64176;49.156;7.810;2023-04-25T10:44:01;98907.03;;;7.62;86.08
75594;BME280;64176;49.156;7.810;2023-04-25T10:46:47;98883.91;;;7.62;86.12
75594;BME280;64176;49.156;7.810;2023-04-25T10:49:44;98903.66;;;7.65;87.56
75594;BME280;64176;49.156;7.810;2023-04-25T10:52:32;98909.84;;;7.81;86.87
75594;BME280;64176;49.156;7.810;2023-04-25T10:55:16;98911.56;;;7.80;85.43
75594;BME280;64176;49.156;7.810;2023-04-25T10:58:00;98903.78;;;7.76;85.82
75594;BME280;64176;49.156;7.810;2023-04-25T11:00:44;98907.41;;;7.94;85.19
75594;BME280;64176;49.156;7.810;2023-04-25T11:03:31;98903.16;;;7.99;84.52
75594;BME280;64176;49.156;7.810;2023-04-25T11:06:22;98902.59;;;8.29;86.47
75594;BME280;64176;49.156;7.810;2023-04-25T11:09:11;98893.28;;;8.42;86.04
75594;BME280;64176;49.156;7.810;2023-04-25T11:12:00;98887.22;;;8.34;84.26
75594;BME280;64176;49.156;7.810;2023-04-25T11:14:44;98893.31;;;8.44;83.71
75594;BME280;64176;49.156;7.810;2023-04-25T11:17:28;98902.88;;;8.58;83.67
75594;BME280;64176;49.156;7.810;2023-04-25T11:20:13;98900.19;;;8.45;82.83
75594;BME280;64176;49.156;7.810;2023-04-25T11:23:04;98898.59;;;8.59;83.55
75594;BME280;64176;49.156;7.810;2023-04-25T11:25:48;98889.44;;;9.09;80.78
75594;BME280;64176;49.156;7.810;2023-04-25T11:28:33;98904.00;;;8.98;81.17
75594;BME280;64176;49.156;7.810;2023-04-25T11:31:20;98900.59;;;9.04;81.71
75594;BME280;64176;49.156;7.810;2023-04-25T11:34:05;98897.91;;;8.87;81.14
75594;BME280;64176;49.156;7.810;2023-04-25T11:36:49;98901.09;;;8.54;79.16
75594;BME280;64176;49.156;7.810;2023-04-25T11:39:38;98884.13;;;8.81;80.02
75594;BME280;64176;49.156;7.810;2023-04-25T11:42:22;98892.97;;;9.30;79.46
75594;BME280;64176;49.156;7.810;2023-04-25T11:45:06;98899.94;;;9.46;79.38
75594;BME280;64176;49.156;7.810;2023-04-25T11:47:51;98890.53;;;9.57;80.53
75594;BME280;64176;49.156;7.810;2023-04-25T11:50:35;98884.50;;;9.54;78.63
75594;BME280;64176;49.156;7.810;2023-04-25T11:53:22;98889.69;;;9.58;78.69
75594;BME280;64176;49.156;7.810;2023-04-25T11:56:11;98876.75;;;9.49;78.54
75594;BME280;64176;49.156;7.810;2023-04-25T11:58:56;98872.44;;;9.54;79.17
75594;BME280;64176;49.156;7.810;2023-04-25T12:01:48;98869.00;;;9.44;79.54
75594;BME280;64176;49.156;7.810;2023-04-25T12:04:35;98876.72;;;9.50;80.30
75594;BME280;64176;49.156;7.810;2023-04-25T12:07:19;98881.91;;;9.49;79.41
75594;BME280;64176;49.156;7.810;2023-04-25T12:10:15;98887.09;;;9.57;78.08
75594;BME280;64176;49.156;7.810;2023-04-25T12:12:59;98890.56;;;9.75;77.30
75594;BME280;64176;49.156;7.810;2023-04-25T12:15:46;98891.50;;;10.00;75.68
75594;BME280;64176;49.156;7.810;2023-04-25T12:18:30;98888.06;;;10.03;75.75
75594;BME280;64176;49.156;7.810;2023-04-25T12:21:15;98890.69;;;10.19;77.20
75594;BME280;64176;49.156;7.810;2023-04-25T12:24:14;98885.53;;;10.18;76.65
75594;BME280;64176;49.156;7.810;2023-04-25T12:27:03;98876.09;;;10.49;76.83
75594;BME280;64176;49.156;7.810;2023-04-25T12:29:53;98885.53;;;10.74;74.73
75594;BME280;64176;49.156;7.810;2023-04-25T12:32:37;98886.41;;;10.58;72.85
75594;BME280;64176;49.156;7.810;2023-04-25T12:35:26;98868.31;;;10.29;74.19
75594;BME280;64176;49.156;7.810;2023-04-25T12:38:10;98889.78;;;10.17;74.17
75594;BME280;64176;49.156;7.810;2023-04-25T12:40:54;98882.06;;;10.04;74.35
75594;BME280;64176;49.156;7.810;2023-04-25T12:43:39;98879.44;;;9.87;78.19
75594;BME280;64176;49.156;7.810;2023-04-25T12:46:23;98894.97;;;10.13;78.41
75594;BME280;64176;49.156;7.810;2023-04-25T12:49:09;98898.38;;;10.00;78.24
75594;BME280;64176;49.156;7.810;2023-04-25T12:51:54;98866.53;;;9.98;78.03
75594;BME280;64176;49.156;7.810;2023-04-25T12:54:38;98883.75;;;10.17;78.23
75594;BME280;64176;49.156;7.810;2023-04-25T12:57:22;98894.13;;;10.20;77.50
75594;BME280;64176;49.156;7.810;2023-04-25T13:00:06;98896.69;;;10.05;78.73
75594;BME280;64176;49.156;7.810;2023-04-25T13:02:53;98892.34;;;9.99;79.78
75594;BME280;64176;49.156;7.810;2023-04-25T13:05:38;98900.09;;;9.96;78.46
75594;BME280;64176;49.156;7.810;2023-04-25T13:08:23;98896.63;;;9.88;79.53
75594;BME280;64176;49.156;7.810;2023-04-25T13:11:10;98897.50;;;9.81;80.08
75594;BME280;64176;49.156;7.810;2023-04-25T13:13:57;98888.06;;;10.01;78.88
75594;BME280;64176;49.156;7.810;2023-04-25T13:16:41;98889.00;;;10.32;79.96
75594;BME280;64176;49.156;7.810;2023-04-25T13:19:25;98896.75;;;10.56;79.18
75594;BME280;64176;49.156;7.810;2023-04-25T13:22:10;98894.09;;;10.94;79.21
75594;BME280;64176;49.156;7.810;2023-04-25T13:24:57;98892.38;;;11.01;81.83
75594;BME280;64176;49.156;7.810;2023-04-25T13:27:41;98890.72;;;10.56;78.43
75594;BME280;64176;49.156;7.810;2023-04-25T13:30:27;98894.97;;;10.13;77.44
75594;BME280;64176;49.156;7.810;2023-04-25T13:33:11;98901.03;;;10.24;76.17
75594;BME280;64176;49.156;7.810;2023-04-25T13:35:55;98884.63;;;9.93;74.93
75594;BME280;64176;49.156;7.810;2023-04-25T13:38:41;98905.34;;;10.25;74.97
75594;BME280;64176;49.156;7.810;2023-04-25T13:41:27;98896.69;;;10.17;72.72
75594;BME280;64176;49.156;7.810;2023-04-25T13:44:11;98908.78;;;10.30;72.96
75594;BME280;64176;49.156;7.810;2023-04-25T13:46:55;98901.06;;;10.26;72.75
75594;BME280;64176;49.156;7.810;2023-04-25T13:49:39;98893.28;;;10.33;72.76
75594;BME280;64176;49.156;7.810;2023-04-25T13:52:23;98913.09;;;10.39;74.55
75594;BME280;64176;49.156;7.810;2023-04-25T13:55:11;98911.34;;;10.18;74.61
75594;BME280;64176;49.156;7.810;2023-04-25T13:57:58;98900.97;;;10.01;77.25
75594;BME280;64176;49.156;7.810;2023-04-25T14:00:53;98923.31;;;9.92;79.40
75594;BME280;64176;49.156;7.810;2023-04-25T14:03:37;98921.59;;;9.98;82.25
75594;BME280;64176;49.156;7.810;2023-04-25T14:06:21;98924.13;;;9.77;83.11
75594;BME280;64176;49.156;7.810;2023-04-25T14:09:07;98933.63;;;9.82;84.16
75594;BME280;64176;49.156;7.810;2023-04-25T14:11:54;98936.03;;;9.43;84.29
75594;BME280;64176;49.156;7.810;2023-04-25T14:14:38;98944.59;;;9.34;85.24
75594;BME280;64176;49.156;7.810;2023-04-25T14:17:22;98954.03;;;9.32;87.42
75594;BME280;64176;49.156;7.810;2023-04-25T14:20:10;98961.75;;;9.28;86.73
75594;BME280;64176;49.156;7.810;2023-04-25T14:22:55;98958.97;;;8.94;86.14
75594;BME280;64176;49.156;7.810;2023-04-25T14:25:45;98973.50;;;8.88;87.67
75594;BME280;64176;49.156;7.810;2023-04-25T14:28:29;98981.84;;;8.58;82.90
75594;BME280;64176;49.156;7.810;2023-04-25T14:31:16;98987.72;;;8.43;85.09
75594;BME280;64176;49.156;7.810;2023-04-25T14:34:00;98985.19;;;8.51;87.27
75594;BME280;64176;49.156;7.810;2023-04-25T14:36:44;98986.22;;;8.66;88.29
75594;BME280;64176;49.156;7.810;2023-04-25T14:39:28;98989.56;;;8.58;86.51
75594;BME280;64176;49.156;7.810;2023-04-25T14:42:12;98971.41;;;8.44;88.06
75594;BME280;64176;49.156;7.810;2023-04-25T14:44:56;98980.00;;;8.45;86.41
75594;BME280;64176;49.156;7.810;2023-04-25T14:47:42;98986.94;;;8.52;87.70
75594;BME280;64176;49.156;7.810;2023-04-25T14:50:29;98990.53;;;8.67;84.66
75594;BME280;64176;49.156;7.810;2023-04-25T14:53:14;98994.06;;;8.79;84.63
75594;BME280;64176;49.156;7.810;2023-04-25T14:56:00;98984.66;;;8.87;84.52
75594;BME280;64176;49.156;7.810;2023-04-25T14:58:44;98991.53;;;8.83;83.61
75594;BME280;64176;49.156;7.810;2023-04-25T15:01:29;98990.66;;;8.84;83.68
75594;BME280;64176;49.156;7.810;2023-04-25T15:04:13;98997.56;;;8.90;82.85